createdAt,value
2018-07-11T06:04:05.664Z,0.00
2018-07-11T06:05:05.476Z,0.00
2018-07-11T06:06:05.432Z,0.00
2018-07-11T06:07:05.402Z,0.00
2018-07-11T06:08:05.379Z,0.00
2018-07-11T06:09:05.364Z,0.00
2018-07-11T06:10:05.383Z,0.00
2018-07-11T06:11:05.292Z,0.00
2018-07-11T06:12:05.281Z,0.00
2018-07-11T06:13:05.260Z,0.00
2018-07-11T06:14:05.255Z,0.00
2018-07-11T06:15:05.193Z,0.00
2018-07-11T06:16:05.288Z,0.00
2018-07-11T06:17:05.161Z,0.00
2018-07-11T06:18:05.164Z,0.00
2018-07-11T06:19:05.106Z,0.00
2018-07-11T06:20:05.106Z,0.00
2018-07-11T06:21:05.142Z,0.00
2018-07-11T06:22:05.039Z,0.00
2018-07-11T06:23:04.985Z,0.00
2018-07-11T06:24:04.977Z,0.00
2018-07-11T06:25:05.013Z,0.00
2018-07-11T06:26:05.016Z,0.00
2018-07-11T06:27:04.894Z,0.00
2018-07-11T06:28:04.920Z,0.00
2018-07-11T06:29:04.867Z,0.00
2018-07-11T06:30:04.815Z,0.00
2018-07-11T06:31:04.853Z,0.00
2018-07-11T06:32:04.823Z,0.00
2018-07-11T06:33:04.727Z,0.00
2018-07-11T06:34:04.698Z,0.00
2018-07-11T06:35:04.676Z,0.00
2018-07-11T06:36:04.712Z,0.00
2018-07-11T06:37:04.620Z,0.00
2018-07-11T06:38:04.622Z,0.00
2018-07-11T06:39:04.591Z,0.00
2018-07-11T06:40:04.550Z,0.00
2018-07-11T06:41:04.637Z,0.00
2018-07-11T06:42:04.507Z,0.00
2018-07-11T06:43:04.477Z,0.00
2018-07-11T06:44:04.464Z,0.00
2018-07-11T06:45:04.446Z,0.00
2018-07-11T06:46:04.405Z,0.00
2018-07-11T06:47:04.435Z,0.00
2018-07-11T06:48:04.341Z,0.00
2018-07-11T06:49:04.329Z,0.00
2018-07-11T06:50:04.310Z,0.00
2018-07-11T06:51:04.269Z,0.00
2018-07-11T06:52:04.399Z,0.00
2018-07-11T06:53:04.229Z,0.00
2018-07-11T06:54:04.190Z,0.00
2018-07-11T06:55:04.153Z,0.00
2018-07-11T06:56:04.201Z,0.00
2018-07-11T06:57:04.214Z,0.00
2018-07-11T06:58:04.083Z,0.00
2018-07-11T06:59:04.053Z,0.00
2018-07-11T07:00:04.029Z,0.00
2018-07-11T07:01:04.005Z,0.00
2018-07-11T07:02:04.075Z,0.00
2018-07-11T07:03:03.953Z,0.00
2018-07-11T07:04:03.925Z,0.00
2018-07-11T07:05:03.922Z,0.00
2018-07-11T07:06:03.872Z,0.00
2018-07-11T07:07:03.954Z,0.00
2018-07-11T07:08:03.823Z,0.00
2018-07-11T07:09:03.802Z,0.00
2018-07-11T07:10:03.789Z,0.00
2018-07-11T07:11:03.771Z,0.00
2018-07-11T07:12:03.817Z,0.00
2018-07-11T07:13:03.693Z,0.00
2018-07-11T07:14:03.658Z,0.00
2018-07-11T07:15:03.656Z,0.00
2018-07-11T07:16:03.620Z,0.00
2018-07-11T07:17:03.693Z,0.00
2018-07-11T07:18:03.561Z,0.00
2018-07-11T07:19:03.539Z,0.00
2018-07-11T07:20:03.519Z,0.00
2018-07-11T07:21:03.483Z,0.00
2018-07-11T07:22:03.451Z,0.00
2018-07-11T07:23:03.564Z,0.00
2018-07-11T07:24:03.419Z,0.00
2018-07-11T07:25:03.385Z,0.00
2018-07-11T07:26:03.356Z,0.00
2018-07-11T07:27:03.347Z,0.00
2018-07-11T07:28:03.302Z,0.00
2018-07-11T07:29:03.431Z,0.00
2018-07-11T07:30:03.243Z,0.00
2018-07-11T07:31:03.260Z,0.00
2018-07-11T07:32:03.227Z,0.00
2018-07-11T07:33:03.181Z,0.00
2018-07-11T07:34:03.258Z,0.00
2018-07-11T07:35:03.129Z,0.00
2018-07-11T07:36:03.083Z,0.00
2018-07-11T07:37:03.090Z,0.00
2018-07-11T07:38:03.040Z,0.00
2018-07-11T07:39:03.112Z,0.00
2018-07-11T07:40:02.990Z,0.00
2018-07-11T07:41:02.966Z,0.00
2018-07-11T07:42:02.944Z,0.00
2018-07-11T07:43:02.906Z,0.00
2018-07-11T07:44:02.935Z,0.00
2018-07-11T07:45:02.867Z,0.00
2018-07-11T07:46:02.849Z,0.00
2018-07-11T07:47:02.866Z,0.00
2018-07-11T07:48:02.787Z,0.00
2018-07-11T07:49:02.874Z,0.00
2018-07-11T07:50:02.725Z,0.00
2018-07-11T07:51:02.740Z,0.00
2018-07-11T07:52:02.694Z,0.00
2018-07-11T07:53:02.656Z,0.00
2018-07-11T07:54:02.690Z,0.00
2018-07-11T07:55:02.629Z,0.00
2018-07-11T07:56:02.576Z,0.00
2018-07-11T07:57:02.550Z,0.00
2018-07-11T07:58:02.515Z,0.00
2018-07-11T07:59:02.507Z,0.00
2018-07-11T08:00:02.526Z,0.00
2018-07-11T08:01:02.456Z,0.00
2018-07-11T08:02:02.421Z,0.00
2018-07-11T08:03:02.380Z,0.00
2018-07-11T08:04:02.365Z,0.00
2018-07-11T08:05:02.349Z,0.00
2018-07-11T08:06:02.429Z,0.00
2018-07-11T08:07:02.323Z,0.00
2018-07-11T08:08:02.263Z,0.00
2018-07-11T08:09:02.240Z,0.00
2018-07-11T08:10:02.204Z,0.00
2018-07-11T08:11:02.269Z,0.00
2018-07-11T08:12:02.166Z,0.00
2018-07-11T08:13:02.137Z,0.00
2018-07-11T08:14:02.130Z,0.00
2018-07-11T08:15:02.090Z,0.00
2018-07-11T08:16:02.160Z,0.00
2018-07-11T08:17:02.039Z,0.00
2018-07-11T08:18:01.995Z,0.00
2018-07-11T08:19:01.994Z,0.00
2018-07-11T08:20:01.961Z,0.00
2018-07-11T08:21:02.033Z,0.00
2018-07-11T08:22:01.887Z,0.00
2018-07-11T08:23:01.880Z,0.00
2018-07-11T08:24:01.858Z,0.00
2018-07-11T08:25:01.815Z,0.00
2018-07-11T08:26:01.904Z,0.00
2018-07-11T08:27:01.848Z,0.00
2018-07-11T08:28:01.747Z,0.00
2018-07-11T08:29:01.721Z,0.00
2018-07-11T08:30:01.696Z,0.00
2018-07-11T08:31:01.648Z,0.00
2018-07-11T08:32:01.738Z,0.00
2018-07-11T08:33:01.615Z,0.00
2018-07-11T08:34:01.643Z,0.00
2018-07-11T08:35:01.608Z,0.00
2018-07-11T08:36:01.521Z,0.00
2018-07-11T08:37:01.590Z,0.00
2018-07-11T08:38:01.458Z,0.00
2018-07-11T08:39:01.452Z,0.00
2018-07-11T08:40:01.404Z,0.00
2018-07-11T08:41:01.383Z,0.00
2018-07-11T08:42:01.391Z,0.00
2018-07-11T08:43:01.445Z,0.00
2018-07-11T08:44:01.319Z,0.00
2018-07-11T08:45:01.307Z,0.00
2018-07-11T08:46:01.289Z,0.00
2018-07-11T08:47:01.239Z,0.00
2018-07-11T08:48:01.386Z,0.00
2018-07-11T08:49:01.173Z,0.00
2018-07-11T08:50:01.152Z,0.00
2018-07-11T08:51:01.139Z,0.00
2018-07-11T08:52:01.102Z,0.00
2018-07-11T08:53:01.118Z,0.00
2018-07-11T08:54:01.043Z,0.00
2018-07-11T08:55:02.789Z,0.00
2018-07-11T08:56:02.899Z,0.00
2018-07-11T08:57:02.494Z,0.00
2018-07-11T08:58:03.699Z,0.00
2018-07-11T08:59:02.651Z,0.00
2018-07-11T09:00:00.885Z,0.00
2018-07-11T09:01:00.856Z,0.00
2018-07-11T09:02:00.867Z,0.00
2018-07-11T09:03:00.806Z,0.00
2018-07-11T09:04:00.991Z,0.00
2018-07-11T09:05:00.751Z,0.00
2018-07-11T09:06:00.732Z,0.00
2018-07-11T09:07:00.728Z,0.00
2018-07-11T09:08:00.677Z,0.00
2018-07-11T09:09:00.669Z,0.00
2018-07-11T09:10:00.722Z,0.00
2018-07-11T09:11:00.600Z,0.00
2018-07-11T09:12:00.599Z,0.00
2018-07-11T09:13:00.543Z,0.00
2018-07-11T09:14:00.533Z,0.00
2018-07-11T09:15:00.605Z,0.00
2018-07-11T09:16:00.483Z,0.00
2018-07-11T09:17:00.437Z,0.00
2018-07-11T09:18:00.496Z,0.00
2018-07-11T09:19:00.379Z,0.00
2018-07-11T09:20:00.358Z,0.00
2018-07-11T09:21:00.435Z,0.00
2018-07-11T09:22:00.321Z,0.00
2018-07-11T09:23:00.275Z,0.00
2018-07-11T09:24:00.320Z,0.00
2018-07-11T09:25:00.226Z,0.00
2018-07-11T09:26:00.314Z,0.00
2018-07-11T09:27:00.172Z,0.00
2018-07-11T09:28:00.160Z,0.00
2018-07-11T09:29:00.118Z,0.00
2018-07-11T09:30:00.098Z,0.00
2018-07-11T09:31:00.187Z,0.00
2018-07-11T09:32:00.057Z,0.00
2018-07-11T09:33:00.031Z,0.00
2018-07-11T09:34:00.014Z,0.00
2018-07-11T09:34:59.962Z,0.00
2018-07-11T09:36:00.009Z,0.00
2018-07-11T09:36:59.914Z,0.00
2018-07-11T09:37:59.905Z,0.00
2018-07-11T09:38:59.859Z,0.00
2018-07-11T09:39:59.841Z,0.00
2018-07-11T09:40:59.794Z,0.00
2018-07-11T09:41:59.837Z,0.00
2018-07-11T09:42:59.811Z,0.00
2018-07-11T09:43:59.805Z,0.00
2018-07-11T09:44:59.700Z,0.00
2018-07-11T09:45:59.672Z,0.00
2018-07-11T09:46:59.759Z,0.00
2018-07-11T09:47:59.610Z,0.00
2018-07-11T09:48:59.597Z,0.00
2018-07-11T09:49:59.565Z,0.00
2018-07-11T09:50:59.548Z,0.00
2018-07-11T09:51:59.607Z,0.00
2018-07-11T09:52:59.477Z,0.00
2018-07-11T09:53:59.455Z,0.00
2018-07-11T09:54:59.452Z,0.00
2018-07-11T09:55:59.415Z,0.00
2018-07-11T09:56:59.368Z,0.00
2018-07-11T09:57:59.421Z,0.00
2018-07-11T09:58:59.352Z,0.00
2018-07-11T09:59:59.290Z,0.00
2018-07-11T10:00:59.272Z,0.00
2018-07-11T10:01:59.263Z,0.00
2018-07-11T10:02:59.315Z,0.00
2018-07-11T10:03:59.185Z,0.00
2018-07-11T10:04:59.161Z,0.00
2018-07-11T10:05:59.129Z,0.00
2018-07-11T10:06:59.118Z,0.00
2018-07-11T10:07:59.156Z,0.00
2018-07-11T10:08:59.072Z,0.00
2018-07-11T10:09:59.044Z,0.00
2018-07-11T10:10:59.015Z,0.00
2018-07-11T10:11:59.048Z,0.00
2018-07-11T10:12:59.082Z,0.00
2018-07-11T10:13:58.918Z,0.00
2018-07-11T10:14:58.914Z,0.00
2018-07-11T10:15:58.873Z,0.00
2018-07-11T10:16:58.849Z,0.00
2018-07-11T10:17:58.812Z,0.00
2018-07-11T10:18:58.851Z,0.00
2018-07-11T10:19:58.772Z,0.00
2018-07-11T10:20:58.757Z,0.00
2018-07-11T10:21:58.715Z,0.00
2018-07-11T10:22:58.682Z,0.00
2018-07-11T10:23:58.756Z,0.00
2018-07-11T10:24:58.668Z,0.00
2018-07-11T10:25:58.612Z,0.00
2018-07-11T10:26:58.584Z,0.00
2018-07-11T10:27:58.570Z,0.00
2018-07-11T10:28:58.625Z,0.00
2018-07-11T10:29:58.503Z,0.00
2018-07-11T10:30:58.483Z,0.00
2018-07-11T10:31:58.436Z,0.00
2018-07-11T10:32:58.426Z,0.00
2018-07-11T10:33:58.386Z,0.00
2018-07-11T10:34:58.517Z,0.00
2018-07-11T10:35:58.338Z,0.00
2018-07-11T10:36:58.308Z,0.00
2018-07-11T10:37:58.307Z,0.00
2018-07-11T10:38:58.319Z,0.00
2018-07-11T10:39:58.237Z,0.00
2018-07-11T10:40:58.251Z,0.00
2018-07-11T10:41:58.211Z,0.00
2018-07-11T10:42:58.146Z,0.00
2018-07-11T10:43:58.130Z,0.00
2018-07-11T10:44:58.135Z,0.00
2018-07-11T10:45:58.137Z,0.00
2018-07-11T10:46:58.046Z,0.00
2018-07-11T10:47:58.018Z,0.00
2018-07-11T10:48:57.991Z,0.00
2018-07-11T10:49:57.968Z,0.00
2018-07-11T10:50:57.938Z,0.00
2018-07-11T10:51:57.952Z,0.00
2018-07-11T10:52:57.889Z,0.00
2018-07-11T10:53:57.909Z,0.00
2018-07-11T10:54:57.832Z,0.00
2018-07-11T10:55:57.812Z,0.00
2018-07-11T10:56:57.929Z,0.00
2018-07-11T10:57:57.804Z,0.00
2018-07-11T10:58:57.713Z,0.00
2018-07-11T10:59:57.739Z,0.00
2018-07-11T11:01:05.702Z,0.00
2018-07-11T11:01:57.735Z,0.00
2018-07-11T11:02:57.614Z,0.00
2018-07-11T11:03:57.594Z,0.00
2018-07-11T11:04:57.613Z,0.00
2018-07-11T11:05:57.592Z,0.00
2018-07-11T11:06:57.611Z,0.00
2018-07-11T11:07:57.575Z,0.00
2018-07-11T11:08:57.463Z,0.00
2018-07-11T11:09:57.432Z,0.00
2018-07-11T11:10:57.397Z,0.00
2018-07-11T11:11:57.383Z,0.00
2018-07-11T11:12:57.462Z,0.00
2018-07-11T11:13:57.333Z,0.00
2018-07-11T11:14:57.306Z,0.00
2018-07-11T11:15:57.269Z,0.00
2018-07-11T11:16:57.254Z,0.00
2018-07-11T11:17:57.331Z,0.00
2018-07-11T11:18:57.221Z,0.00
2018-07-11T11:19:57.161Z,0.00
2018-07-11T11:20:57.146Z,0.00
2018-07-11T11:21:57.121Z,0.00
2018-07-11T11:22:57.096Z,0.00
2018-07-11T11:23:57.175Z,0.00
2018-07-11T11:24:57.029Z,0.00
2018-07-11T11:25:57.004Z,0.00
2018-07-11T11:26:56.980Z,0.00
2018-07-11T11:27:56.947Z,0.00
2018-07-11T11:28:57.003Z,0.00
2018-07-11T11:29:56.990Z,0.00
2018-07-11T11:30:56.870Z,0.00
2018-07-11T11:31:56.867Z,0.00
2018-07-11T11:32:56.811Z,0.00
2018-07-11T11:33:56.794Z,0.00
2018-07-11T11:34:56.862Z,0.00
2018-07-11T11:35:56.734Z,0.00
2018-07-11T11:36:56.730Z,0.00
2018-07-11T11:37:56.690Z,0.00
2018-07-11T11:38:56.652Z,0.00
2018-07-11T11:39:56.674Z,0.00
2018-07-11T11:40:56.614Z,5.63
2018-07-11T11:41:56.882Z,5.63
2018-07-11T11:42:56.664Z,5.63
2018-07-11T11:43:56.535Z,5.63
2018-07-11T11:44:56.535Z,5.63
2018-07-11T11:45:56.473Z,5.63
2018-07-11T11:46:56.436Z,5.63
2018-07-11T11:47:56.583Z,5.63
2018-07-11T11:48:56.748Z,5.63
2018-07-11T11:49:56.374Z,5.63
2018-07-11T11:50:56.512Z,5.63
2018-07-11T11:51:56.297Z,5.63
2018-07-11T11:52:56.284Z,5.63
2018-07-11T11:53:56.267Z,11.25
2018-07-11T11:54:56.241Z,11.25
2018-07-11T11:55:56.285Z,11.25
2018-07-11T11:56:56.177Z,11.25
2018-07-11T11:57:56.145Z,11.25
2018-07-11T11:58:56.128Z,16.88
2018-07-11T11:59:56.161Z,16.88
2018-07-11T12:00:56.311Z,16.88
2018-07-11T12:01:56.162Z,16.88
2018-07-11T12:02:56.017Z,16.88
2018-07-11T12:03:55.999Z,16.88
2018-07-11T12:04:55.975Z,16.88
2018-07-11T12:05:56.000Z,11.25
2018-07-11T12:06:56.010Z,11.25
2018-07-11T12:07:55.886Z,11.25
2018-07-11T12:08:55.850Z,11.25
2018-07-11T12:09:55.916Z,11.25
2018-07-11T12:10:55.798Z,11.25
2018-07-11T12:11:55.927Z,16.88
2018-07-11T12:12:55.763Z,16.88
2018-07-11T12:13:55.723Z,16.88
2018-07-11T12:14:55.738Z,16.88
2018-07-11T12:15:55.662Z,16.88
2018-07-11T12:16:55.743Z,16.88
2018-07-11T12:17:55.640Z,16.88
2018-07-11T12:18:55.582Z,16.88
2018-07-11T12:19:55.592Z,22.50
2018-07-11T12:20:55.536Z,28.13
2018-07-11T12:21:55.630Z,45.00
2018-07-11T12:22:55.494Z,61.88
2018-07-11T12:23:55.480Z,73.13
2018-07-11T12:24:55.452Z,73.13
2018-07-11T12:25:55.428Z,39.38
2018-07-11T12:26:55.398Z,33.75
2018-07-11T12:27:55.472Z,33.75
2018-07-11T12:28:55.353Z,28.13
2018-07-11T12:29:55.312Z,28.13
2018-07-11T12:30:55.492Z,22.50
2018-07-11T12:31:55.246Z,22.50
2018-07-11T12:32:55.292Z,22.50
2018-07-11T12:33:55.266Z,22.50
2018-07-11T12:34:55.220Z,22.50
2018-07-11T12:35:55.155Z,22.50
2018-07-11T12:36:55.117Z,28.13
2018-07-11T12:37:55.098Z,28.13
2018-07-11T12:38:55.191Z,33.75
2018-07-11T12:39:55.046Z,33.75
2018-07-11T12:40:55.019Z,45.00
2018-07-11T12:41:54.988Z,56.25
2018-07-11T12:42:54.990Z,50.63
2018-07-11T12:43:55.091Z,28.13
2018-07-11T12:44:54.935Z,22.50
2018-07-11T12:45:54.895Z,22.50
2018-07-11T12:46:54.880Z,22.50
2018-07-11T12:47:54.836Z,22.50
2018-07-11T12:48:55.029Z,22.50
2018-07-11T12:49:54.805Z,22.50
2018-07-11T12:50:54.784Z,22.50
2018-07-11T12:51:54.759Z,22.50
2018-07-11T12:52:54.737Z,22.50
2018-07-11T12:53:54.780Z,22.50
2018-07-11T12:54:54.662Z,22.50
2018-07-11T12:55:54.663Z,22.50
2018-07-11T12:56:54.621Z,22.50
2018-07-11T12:57:54.636Z,22.50
2018-07-11T12:58:54.669Z,22.50
2018-07-11T12:59:54.544Z,22.50
2018-07-11T13:00:54.546Z,22.50
2018-07-11T13:01:54.497Z,22.50
2018-07-11T13:02:54.461Z,22.50
2018-07-11T13:03:54.463Z,22.50
2018-07-11T13:04:54.487Z,22.50
2018-07-11T13:05:54.384Z,22.50
2018-07-11T13:06:54.360Z,22.50
2018-07-11T13:07:54.354Z,22.50
2018-07-11T13:08:54.324Z,22.50
2018-07-11T13:09:54.276Z,22.50
2018-07-11T13:10:54.372Z,22.50
2018-07-11T13:11:54.225Z,22.50
2018-07-11T13:12:54.245Z,22.50
2018-07-11T13:13:54.345Z,22.50
2018-07-11T13:14:54.164Z,22.50
2018-07-11T13:15:54.368Z,22.50
2018-07-11T13:16:54.305Z,22.50
2018-07-11T13:17:54.092Z,22.50
2018-07-11T13:18:54.070Z,22.50
2018-07-11T13:19:54.050Z,22.50
2018-07-11T13:20:54.116Z,22.50
2018-07-11T13:21:53.979Z,22.50
2018-07-11T13:22:53.973Z,22.50
2018-07-11T13:23:53.952Z,22.50
2018-07-11T13:24:53.955Z,22.50
2018-07-11T13:25:54.051Z,22.50
2018-07-11T13:26:53.876Z,22.50
2018-07-11T13:27:53.870Z,22.50
2018-07-11T13:28:54.226Z,22.50
2018-07-11T13:29:53.939Z,22.50
2018-07-11T13:30:54.221Z,22.50
2018-07-11T13:31:53.722Z,22.50
2018-07-11T13:32:53.803Z,28.13
2018-07-11T13:33:53.679Z,28.13
2018-07-11T13:34:53.961Z,28.13
2018-07-11T13:35:53.751Z,28.13
2018-07-11T13:36:53.621Z,28.13
2018-07-11T13:37:53.687Z,28.13
2018-07-11T13:38:53.563Z,28.13
2018-07-11T13:39:53.544Z,28.13
2018-07-11T13:40:53.624Z,28.13
2018-07-11T13:41:53.509Z,28.13
2018-07-11T13:42:53.454Z,33.75
2018-07-11T13:43:53.463Z,33.75
2018-07-11T13:44:53.660Z,33.75
2018-07-11T13:45:53.394Z,33.75
2018-07-11T13:46:53.446Z,33.75
2018-07-11T13:47:53.314Z,33.75
2018-07-11T13:48:53.314Z,33.75
2018-07-11T13:49:53.289Z,33.75
2018-07-11T13:50:53.277Z,33.75
2018-07-11T13:51:54.232Z,33.75
2018-07-11T13:52:53.341Z,33.75
2018-07-11T13:53:53.191Z,33.75
2018-07-11T13:54:53.198Z,33.75
2018-07-11T13:55:53.133Z,33.75
2018-07-11T13:56:53.121Z,33.75
2018-07-11T13:57:53.132Z,33.75
2018-07-11T13:58:53.099Z,33.75
2018-07-11T13:59:53.027Z,33.75
2018-07-11T14:00:53.095Z,39.38
2018-07-11T14:01:52.978Z,39.38
2018-07-11T14:02:53.075Z,39.38
2018-07-11T14:03:52.943Z,39.38
2018-07-11T14:04:52.923Z,39.38
2018-07-11T14:05:52.908Z,39.38
2018-07-11T14:06:52.849Z,39.38
2018-07-11T14:07:52.946Z,45.00
2018-07-11T14:08:52.817Z,45.00
2018-07-11T14:09:52.808Z,45.00
2018-07-11T14:10:52.758Z,50.63
2018-07-11T14:11:52.753Z,50.63
2018-07-11T14:12:52.816Z,50.63
2018-07-11T14:13:52.697Z,50.63
2018-07-11T14:14:52.683Z,56.25
2018-07-11T14:15:52.725Z,56.25
2018-07-11T14:16:52.601Z,61.88
2018-07-11T14:17:52.656Z,61.88
2018-07-11T14:18:52.566Z,61.88
2018-07-11T14:19:52.538Z,67.50
2018-07-11T14:20:52.534Z,67.50
2018-07-11T14:21:52.549Z,73.13
2018-07-11T14:22:53.061Z,73.13
2018-07-11T14:23:52.974Z,78.75
2018-07-11T14:24:52.470Z,78.75
2018-07-11T14:25:52.436Z,78.75
2018-07-11T14:26:52.359Z,78.75
2018-07-11T14:27:52.368Z,78.75
2018-07-11T14:28:52.304Z,84.38
2018-07-11T14:29:52.454Z,84.38
2018-07-11T14:30:52.422Z,90.00
2018-07-11T14:31:52.274Z,90.00
2018-07-11T14:32:52.231Z,90.00
2018-07-11T14:33:52.228Z,84.38
2018-07-11T14:34:52.375Z,84.38
2018-07-11T14:35:52.217Z,78.75
2018-07-11T14:36:52.650Z,78.75
2018-07-11T14:37:52.138Z,84.38
2018-07-11T14:38:52.143Z,78.75
2018-07-11T14:39:52.397Z,73.13
2018-07-11T14:40:52.076Z,90.00
2018-07-11T14:41:52.096Z,73.13
2018-07-11T14:42:51.998Z,67.50
2018-07-11T14:43:52.035Z,67.50
2018-07-11T14:44:52.315Z,61.88
2018-07-11T14:45:51.971Z,61.88
2018-07-11T14:46:52.015Z,73.13
2018-07-11T14:47:51.864Z,73.13
2018-07-11T14:48:51.848Z,73.13
2018-07-11T14:49:52.464Z,73.13
2018-07-11T14:50:51.825Z,73.13
2018-07-11T14:51:51.759Z,73.13
2018-07-11T14:52:51.795Z,73.13
2018-07-11T14:53:51.708Z,78.75
2018-07-11T14:54:52.221Z,90.00
2018-07-11T14:55:51.869Z,101.25
2018-07-11T14:56:51.744Z,106.88
2018-07-11T14:57:52.040Z,151.88
2018-07-11T14:58:51.799Z,140.63
2018-07-11T14:59:51.715Z,146.25
2018-07-11T15:00:51.901Z,135.00
2018-07-11T15:01:51.659Z,135.00
2018-07-11T15:02:51.699Z,112.50
2018-07-11T15:03:51.640Z,123.75
2018-07-11T15:04:51.783Z,163.13
2018-07-11T15:05:51.582Z,168.75
2018-07-11T15:06:51.799Z,180.00
2018-07-11T15:07:51.382Z,146.25
2018-07-11T15:08:51.521Z,95.63
2018-07-11T15:09:51.344Z,123.75
2018-07-11T15:10:51.340Z,129.38
2018-07-11T15:11:51.310Z,95.63
2018-07-11T15:12:51.469Z,101.25
2018-07-11T15:13:51.331Z,90.00
2018-07-11T15:14:51.245Z,73.13
2018-07-11T15:15:51.221Z,73.13
2018-07-11T15:16:51.241Z,67.50
2018-07-11T15:17:51.321Z,84.38
2018-07-11T15:18:51.134Z,61.88
2018-07-11T15:19:51.131Z,56.25
2018-07-11T15:20:51.104Z,50.63
2018-07-11T15:21:51.064Z,50.63
2018-07-11T15:22:51.208Z,56.25
2018-07-11T15:23:51.084Z,56.25
2018-07-11T15:24:51.019Z,61.88
2018-07-11T15:25:50.982Z,67.50
2018-07-11T15:26:50.957Z,67.50
2018-07-11T15:27:51.050Z,73.13
2018-07-11T15:28:50.934Z,73.13
2018-07-11T15:29:50.906Z,73.13
2018-07-11T15:30:50.895Z,73.13
2018-07-11T15:31:50.861Z,73.13
2018-07-11T15:32:50.891Z,73.13
2018-07-11T15:33:50.817Z,73.13
2018-07-11T15:34:50.810Z,73.13
2018-07-11T15:35:50.766Z,106.88
2018-07-11T15:36:50.730Z,106.88
2018-07-11T15:37:50.781Z,95.63
2018-07-11T15:38:50.790Z,90.00
2018-07-11T15:39:51.202Z,95.63
2018-07-11T15:40:50.646Z,84.38
2018-07-11T15:41:50.645Z,95.63
2018-07-11T15:42:50.610Z,123.75
2018-07-11T15:43:50.598Z,101.25
2018-07-11T15:44:50.672Z,106.88
2018-07-11T15:45:50.531Z,112.50
2018-07-11T15:46:50.518Z,112.50
2018-07-11T15:47:50.510Z,112.50
2018-07-11T15:48:50.461Z,106.88
2018-07-11T15:49:50.493Z,106.88
2018-07-11T15:50:50.652Z,101.25
2018-07-11T15:51:50.430Z,95.63
2018-07-11T15:52:50.491Z,106.88
2018-07-11T15:53:50.386Z,101.25
2018-07-11T15:54:50.343Z,135.00
2018-07-11T15:55:50.347Z,112.50
2018-07-11T15:56:50.381Z,95.63
2018-07-11T15:57:50.296Z,90.00
2018-07-11T15:58:50.320Z,101.25
2018-07-11T15:59:50.348Z,129.38
2018-07-11T16:00:50.209Z,118.13
2018-07-11T16:01:50.302Z,101.25
2018-07-11T16:02:50.162Z,101.25
2018-07-11T16:03:50.144Z,123.75
2018-07-11T16:04:50.197Z,151.88
2018-07-11T16:05:50.175Z,106.88
2018-07-11T16:06:50.233Z,135.00
2018-07-11T16:07:50.089Z,163.13
2018-07-11T16:08:50.097Z,101.25
2018-07-11T16:09:50.024Z,101.25
2018-07-11T16:10:50.027Z,101.25
2018-07-11T16:11:50.034Z,90.00
2018-07-11T16:12:50.033Z,78.75
2018-07-11T16:13:49.918Z,84.38
2018-07-11T16:14:49.888Z,112.50
2018-07-11T16:15:49.905Z,101.25
2018-07-11T16:16:49.965Z,157.50
2018-07-11T16:17:49.883Z,163.13
2018-07-11T16:18:49.800Z,168.75
2018-07-11T16:19:49.804Z,112.50
2018-07-11T16:20:49.818Z,95.63
2018-07-11T16:21:49.816Z,146.25
2018-07-11T16:22:49.829Z,135.00
2018-07-11T16:23:49.708Z,163.13
2018-07-11T16:24:49.671Z,129.38
2018-07-11T16:25:49.701Z,146.25
2018-07-11T16:26:49.667Z,185.63
2018-07-11T16:27:49.717Z,180.00
2018-07-11T16:28:49.608Z,180.00
2018-07-11T16:29:49.762Z,163.13
2018-07-11T16:30:49.590Z,112.50
2018-07-11T16:31:49.576Z,129.38
2018-07-11T16:32:49.622Z,151.88
2018-07-11T16:33:49.498Z,140.63
2018-07-11T16:34:49.509Z,123.75
2018-07-11T16:35:49.443Z,129.38
2018-07-11T16:36:49.440Z,123.75
2018-07-11T16:37:49.470Z,129.38
2018-07-11T16:38:49.497Z,118.13
2018-07-11T16:39:49.365Z,101.25
2018-07-11T16:40:49.350Z,90.00
2018-07-11T16:41:49.332Z,95.63
2018-07-11T16:42:49.328Z,106.88
2018-07-11T16:43:49.291Z,112.50
2018-07-11T16:44:49.356Z,101.25
2018-07-11T16:45:49.344Z,129.38
2018-07-11T16:46:49.292Z,112.50
2018-07-11T16:47:49.226Z,106.88
2018-07-11T16:48:49.191Z,101.25
2018-07-11T16:49:49.213Z,106.88
2018-07-11T16:50:49.146Z,135.00
2018-07-11T16:51:49.108Z,135.00
2018-07-11T16:52:49.105Z,135.00
2018-07-11T16:53:49.089Z,118.13
2018-07-11T16:54:49.150Z,146.25
2018-07-11T16:55:49.050Z,135.00
2018-07-11T16:56:49.030Z,135.00
2018-07-11T16:57:48.990Z,129.38
2018-07-11T16:58:48.968Z,146.25
2018-07-11T16:59:49.070Z,140.63
2018-07-11T17:00:48.946Z,135.00
2018-07-11T17:01:48.930Z,129.38
2018-07-11T17:02:48.909Z,129.38
2018-07-11T17:03:48.889Z,123.75
2018-07-11T17:04:49.009Z,135.00
2018-07-11T17:05:48.927Z,129.38
2018-07-11T17:06:48.823Z,146.25
2018-07-11T17:07:49.178Z,135.00
2018-07-11T17:08:48.790Z,146.25
2018-07-11T17:09:48.747Z,123.75
2018-07-11T17:10:48.838Z,123.75
2018-07-11T17:11:48.707Z,135.00
2018-07-11T17:12:48.683Z,140.63
2018-07-11T17:13:48.668Z,135.00
2018-07-11T17:14:48.667Z,129.38
2018-07-11T17:15:48.742Z,123.75
2018-07-11T17:16:48.608Z,123.75
2018-07-11T17:17:48.571Z,140.63
2018-07-11T17:18:48.641Z,112.50
2018-07-11T17:19:48.531Z,101.25
2018-07-11T17:20:48.629Z,95.63
2018-07-11T17:21:48.505Z,95.63
2018-07-11T17:22:48.595Z,106.88
2018-07-11T17:23:48.443Z,146.25
2018-07-11T17:24:48.435Z,135.00
2018-07-11T17:25:48.415Z,135.00
2018-07-11T17:26:48.494Z,101.25
2018-07-11T17:27:48.376Z,106.88
2018-07-11T17:28:48.354Z,90.00
2018-07-11T17:29:48.375Z,106.88
2018-07-11T17:30:48.316Z,90.00
2018-07-11T17:31:48.293Z,112.50
2018-07-11T17:32:48.464Z,118.13
2018-07-11T17:33:48.252Z,135.00
2018-07-11T17:34:48.272Z,118.13
2018-07-11T17:35:48.252Z,106.88
2018-07-11T17:36:48.201Z,101.25
2018-07-11T17:37:48.174Z,112.50
2018-07-11T17:38:48.251Z,112.50
2018-07-11T17:39:48.116Z,118.13
2018-07-11T17:40:48.108Z,118.13
2018-07-11T17:41:48.111Z,129.38
2018-07-11T17:42:48.100Z,140.63
2018-07-11T17:43:48.146Z,95.63
2018-07-11T17:44:48.010Z,90.00
2018-07-11T17:45:48.009Z,90.00
2018-07-11T17:46:47.970Z,90.00
2018-07-11T17:47:47.977Z,101.25
2018-07-11T17:48:48.013Z,106.88
2018-07-11T17:49:48.065Z,135.00
2018-07-11T17:50:47.906Z,118.13
2018-07-11T17:51:47.919Z,123.75
2018-07-11T17:52:47.897Z,118.13
2018-07-11T17:53:47.837Z,118.13
2018-07-11T17:54:47.924Z,129.38
2018-07-11T17:55:47.791Z,101.25
2018-07-11T17:56:47.809Z,95.63
2018-07-11T17:57:47.755Z,101.25
2018-07-11T17:58:47.738Z,101.25
2018-07-11T17:59:47.877Z,95.63
2018-07-11T18:00:47.705Z,90.00
2018-07-11T18:01:47.694Z,84.38
2018-07-11T18:02:47.652Z,95.63
2018-07-11T18:03:47.680Z,95.63
2018-07-11T18:04:47.720Z,95.63
2018-07-11T18:05:47.628Z,101.25
2018-07-11T18:06:47.568Z,95.63
2018-07-11T18:07:47.580Z,101.25
2018-07-11T18:08:47.531Z,101.25
2018-07-11T18:09:47.648Z,101.25
2018-07-11T18:10:47.512Z,101.25
2018-07-11T18:11:47.478Z,101.25
2018-07-11T18:12:47.442Z,106.88
2018-07-11T18:13:47.427Z,106.88
2018-07-11T18:14:47.386Z,106.88
2018-07-11T18:15:47.986Z,106.88
2018-07-11T18:16:47.365Z,106.88
2018-07-11T18:17:47.453Z,106.88
2018-07-11T18:18:47.329Z,106.88
2018-07-11T18:19:47.371Z,106.88
2018-07-11T18:20:47.275Z,106.88
2018-07-11T18:21:47.358Z,106.88
2018-07-11T18:22:47.234Z,106.88
2018-07-11T18:23:47.205Z,106.88
2018-07-11T18:24:47.195Z,112.50
2018-07-11T18:25:47.170Z,112.50
2018-07-11T18:26:47.252Z,106.88
2018-07-11T18:27:47.133Z,106.88
2018-07-11T18:28:47.100Z,112.50
2018-07-11T18:29:47.102Z,112.50
2018-07-11T18:30:47.069Z,112.50
2018-07-11T18:31:47.040Z,146.25
2018-07-11T18:32:47.133Z,157.50
2018-07-11T18:33:46.999Z,135.00
2018-07-11T18:34:47.048Z,135.00
2018-07-11T18:35:46.958Z,146.25
2018-07-11T18:36:46.957Z,135.00
2018-07-11T18:37:47.034Z,146.25
2018-07-11T18:38:46.898Z,123.75
2018-07-11T18:39:46.891Z,140.63
2018-07-11T18:40:46.882Z,118.13
2018-07-11T18:41:46.837Z,123.75
2018-07-11T18:42:46.926Z,129.38
2018-07-11T18:43:46.817Z,129.38
2018-07-11T18:44:46.789Z,129.38
2018-07-11T18:45:46.869Z,123.75
2018-07-11T18:46:46.743Z,123.75
2018-07-11T18:47:46.826Z,123.75
2018-07-11T18:48:46.695Z,123.75
2018-07-11T18:49:46.687Z,118.13
2018-07-11T18:52:46.721Z,118.13
2018-07-11T18:53:46.596Z,118.13
2018-07-11T18:54:46.575Z,106.88
2018-07-11T18:55:46.542Z,112.50
2018-07-11T18:56:46.514Z,118.13
2018-07-11T18:57:46.666Z,118.13
2018-07-11T18:58:46.508Z,118.13
2018-07-11T18:59:46.463Z,123.75
2018-07-11T19:00:46.470Z,123.75
2018-07-11T19:01:46.446Z,129.38
2018-07-11T19:02:46.460Z,129.38